Time;durP1;ratioP1;P1;durP2;ratioP2;P2;SDS_P1;SDS_P2;PMS_P1;PMS_P2;Temp;Humidity;BMP_temperature;BMP_pressure;BME280_temperature;BME280_humidity;BME280_pressure;Samples;Min_cycle;Max_cycle;Signal;HPM_P1;HPM_P2
2022/08/10 00:01:26;;;;;;;3.27;2.70;;;18.00;99.90;;;;;;4973987;28;20172;-76
2022/08/10 00:03:52;;;;;;;3.20;2.90;;;18.00;99.90;;;;;;4958158;28;20196;-76
2022/08/10 00:06:17;;;;;;;3.63;2.90;;;17.80;99.90;;;;;;4941918;28;20271;-76
2022/08/10 00:08:43;;;;;;;3.43;2.93;;;17.80;99.90;;;;;;4957982;28;20647;-75
2022/08/10 00:11:09;;;;;;;3.17;2.87;;;17.70;99.90;;;;;;4926161;28;20215;-75
2022/08/10 00:13:35;;;;;;;2.97;2.70;;;17.80;99.90;;;;;;4957870;28;20204;-75
2022/08/10 00:16:01;;;;;;;3.70;3.03;;;17.70;99.90;;;;;;4957624;28;20207;-75
2022/08/10 00:18:27;;;;;;;3.77;2.80;;;17.60;99.90;;;;;;4957850;28;20177;-75
2022/08/10 00:20:52;;;;;;;3.07;2.87;;;17.40;99.90;;;;;;4957768;28;20172;-76
2022/08/10 00:23:19;;;;;;;3.20;2.90;;;17.40;99.90;;;;;;4974029;28;20208;-75
2022/08/10 00:25:44;;;;;;;3.60;3.20;;;17.40;99.90;;;;;;4974933;28;20180;-75
2022/08/10 00:28:10;;;;;;;2.80;2.60;;;17.40;99.90;;;;;;4973600;28;20268;-75
2022/08/10 00:30:36;;;;;;;3.20;2.90;;;17.40;99.90;;;;;;4974754;28;20172;-75
2022/08/10 00:33:01;;;;;;;3.63;3.20;;;17.40;99.90;;;;;;4957631;28;20180;-75
2022/08/10 00:35:27;;;;;;;2.83;2.63;;;17.20;99.90;;;;;;4973478;28;20231;-74
2022/08/10 00:37:52;;;;;;;3.00;2.80;;;17.20;99.90;;;;;;4957588;28;20290;-75
2022/08/10 00:40:18;;;;;;;3.20;2.90;;;17.20;99.90;;;;;;4941521;28;20180;-75
2022/08/10 00:42:44;;;;;;;3.13;2.73;;;17.20;99.90;;;;;;4941436;28;20184;-75
2022/08/10 00:45:09;;;;;;;3.17;2.90;;;17.00;99.90;;;;;;4925314;28;20295;-75
2022/08/10 00:47:35;;;;;;;3.30;2.90;;;17.00;99.90;;;;;;4941495;28;20561;-75
2022/08/10 00:50:02;;;;;;;3.30;3.00;;;17.10;99.90;;;;;;4973471;28;20187;-75
2022/08/10 00:52:29;;;;;;;4.63;2.90;;;17.20;99.90;;;;;;4974466;28;20591;-74
2022/08/10 00:54:55;;;;;;;3.50;2.80;;;17.00;99.90;;;;;;4974396;28;20263;-74
2022/08/10 00:57:21;;;;;;;4.67;2.90;;;16.90;99.90;;;;;;4974474;28;20172;-75
2022/08/10 00:59:47;;;;;;;2.93;2.73;;;17.00;99.90;;;;;;4974249;28;20176;-74
2022/08/10 01:02:13;;;;;;;3.17;2.87;;;16.70;99.90;;;;;;4957366;28;20219;-74
2022/08/10 01:04:39;;;;;;;4.53;3.30;;;16.60;99.90;;;;;;4956986;28;20228;-74
2022/08/10 01:07:33;;;;;;;2.83;2.57;;;16.50;99.90;;;;;;4956796;28;20188;-75
2022/08/10 01:10:39;;;;;;;3.07;2.87;;;16.70;99.90;;;;;;4943210;28;20212;-74
2022/08/10 01:13:23;;;;;;;3.20;2.90;;;17.00;99.90;;;;;;4972959;28;20311;-75
2022/08/10 01:16:16;;;;;;;3.20;2.90;;;17.20;99.90;;;;;;4956812;28;20196;-75
2022/08/10 01:18:58;;;;;;;4.00;3.10;;;17.50;99.90;;;;;;4956793;28;20176;-74
2022/08/10 01:22:06;;;;;;;3.37;2.80;;;17.50;99.90;;;;;;4956756;28;20172;-74
2022/08/10 01:25:00;;;;;;;4.77;2.70;;;17.50;99.90;;;;;;4930587;28;20212;-74
2022/08/10 01:27:26;;;;;;;4.20;3.10;;;17.40;99.90;;;;;;4956730;28;20205;-74
2022/08/10 01:30:02;;;;;;;4.37;3.03;;;17.40;99.90;;;;;;4972519;28;20176;-74
2022/08/10 01:32:53;;;;;;;3.33;2.80;;;17.50;99.90;;;;;;4972829;28;20588;-75
2022/08/10 01:35:43;;;;;;;3.73;3.20;;;17.60;99.90;;;;;;4956374;28;20188;-75
2022/08/10 01:38:17;;;;;;;3.77;3.13;;;17.60;99.90;;;;;;4972739;28;20168;-74
2022/08/10 01:40:52;;;;;;;5.27;3.43;;;17.30;99.90;;;;;;4972503;28;20217;-74
2022/08/10 01:43:19;;;;;;;4.47;3.60;;;17.00;99.90;;;;;;4956363;28;20196;-74
2022/08/10 01:45:50;;;;;;;4.70;3.30;;;16.70;99.90;;;;;;4956148;28;20750;-74
2022/08/10 01:48:49;;;;;;;4.17;3.60;;;16.50;99.90;;;;;;4940273;28;20215;-75
2022/08/10 01:51:29;;;;;;;3.70;3.30;;;16.50;99.90;;;;;;4954931;28;20365;-74
2022/08/10 01:54:07;;;;;;;3.93;3.40;;;16.40;99.90;;;;;;4955962;28;20200;-75
2022/08/10 01:56:37;;;;;;;3.90;3.50;;;16.70;99.90;;;;;;4972517;28;20235;-75
2022/08/10 01:59:32;;;;;;;3.73;3.40;;;16.70;99.90;;;;;;4924960;28;20211;-75
2022/08/10 02:02:03;;;;;;;3.70;3.40;;;16.70;99.90;;;;;;4956358;28;20184;-75
2022/08/10 02:04:33;;;;;;;5.70;3.50;;;16.70;99.90;;;;;;4940690;28;20258;-75
2022/08/10 02:07:00;;;;;;;4.13;3.40;;;16.60;99.90;;;;;;4939936;28;20200;-74
2022/08/10 02:09:30;;;;;;;6.10;3.83;;;16.30;99.90;;;;;;4940475;28;20235;-75
2022/08/10 02:12:01;;;;;;;5.63;3.70;;;16.30;99.90;;;;;;4929174;28;20274;-75
2022/08/10 02:14:35;;;;;;;4.00;3.70;;;16.20;99.90;;;;;;4946880;28;20206;-74
2022/08/10 02:17:05;;;;;;;4.83;3.50;;;16.40;99.90;;;;;;4962332;28;20173;-75
2022/08/10 02:19:33;;;;;;;3.43;3.13;;;16.50;99.90;;;;;;4979912;28;20580;-75
2022/08/10 02:22:00;;;;;;;4.07;3.17;;;16.60;99.90;;;;;;4962262;28;20219;-75
2022/08/10 02:24:27;;;;;;;3.53;3.20;;;16.60;99.90;;;;;;4930581;28;20220;-74
2022/08/10 02:26:53;;;;;;;4.10;3.50;;;16.70;99.90;;;;;;4962250;28;20223;-74
2022/08/10 02:29:20;;;;;;;3.57;3.20;;;16.70;99.90;;;;;;4930892;28;20647;-74
2022/08/10 02:31:46;;;;;;;4.63;3.27;;;16.70;99.90;;;;;;4962315;28;20678;-75
2022/08/10 02:34:13;;;;;;;3.67;3.30;;;16.60;99.90;;;;;;4930567;28;20291;-75
2022/08/10 02:36:52;;;;;;;3.47;3.20;;;16.60;99.90;;;;;;4962147;28;20180;-75
2022/08/10 02:39:20;;;;;;;4.13;3.17;;;16.60;99.90;;;;;;4962383;28;20169;-75
2022/08/10 02:41:54;;;;;;;4.43;3.23;;;16.70;99.90;;;;;;4962039;28;20215;-74
2022/08/10 02:44:20;;;;;;;3.50;3.20;;;16.80;99.90;;;;;;4979363;28;20200;-75
2022/08/10 02:46:52;;;;;;;3.90;3.20;;;16.50;99.90;;;;;;4978339;28;20604;-74
2022/08/10 02:49:21;;;;;;;4.47;3.50;;;16.50;99.90;;;;;;4978262;28;20527;-75
2022/08/10 02:52:03;;;;;;;5.17;3.27;;;16.40;99.90;;;;;;4961867;28;20180;-75
2022/08/10 02:54:37;;;;;;;3.90;3.17;;;16.40;99.90;;;;;;4962012;28;20211;-74
2022/08/10 02:57:15;;;;;;;3.93;3.63;;;16.20;99.90;;;;;;4962019;28;20180;-75
2022/08/10 02:59:47;;;;;;;3.63;3.10;;;16.10;99.90;;;;;;4978151;28;20195;-75
2022/08/10 03:02:21;;;;;;;3.50;3.20;;;16.00;99.90;;;;;;4946675;28;20187;-75
2022/08/10 03:04:52;;;;;;;4.40;3.47;;;16.10;99.90;;;;;;4978086;28;20211;-74
2022/08/10 03:07:21;;;;;;;5.27;3.30;;;15.90;99.90;;;;;;4946643;28;20180;-75
2022/08/10 03:09:49;;;;;;;3.83;3.30;;;15.80;99.90;;;;;;4961933;28;20211;-74
2022/08/10 03:12:16;;;;;;;3.63;3.10;;;15.70;99.90;;;;;;4961983;28;20181;-74
2022/08/10 03:14:43;;;;;;;3.37;3.07;;;15.90;99.90;;;;;;4961888;28;20204;-75
2022/08/10 03:17:10;;;;;;;3.37;3.07;;;15.90;99.90;;;;;;4962074;28;20191;-75
2022/08/10 03:19:36;;;;;;;3.70;3.40;;;16.00;99.90;;;;;;4930271;28;20186;-75
2022/08/10 03:22:03;;;;;;;3.90;3.00;;;16.10;99.90;;;;;;4960857;28;20195;-75
2022/08/10 03:24:30;;;;;;;3.93;3.53;;;16.10;99.90;;;;;;4957937;28;20216;-75
2022/08/10 03:26:56;;;;;;;3.83;3.43;;;16.10;99.90;;;;;;4942769;28;20188;-74
2022/08/10 03:29:23;;;;;;;3.63;3.30;;;15.90;99.90;;;;;;4958865;28;20177;-75
2022/08/10 03:31:50;;;;;;;3.30;3.03;;;15.90;99.90;;;;;;4958626;28;20169;-75
2022/08/10 03:34:18;;;;;;;3.60;3.20;;;15.70;99.90;;;;;;4958786;28;20283;-75
2022/08/10 03:36:44;;;;;;;3.50;3.20;;;15.70;99.90;;;;;;4958495;28;20204;-75
2022/08/10 03:39:10;;;;;;;3.60;3.30;;;15.80;99.90;;;;;;4974637;28;20656;-74
2022/08/10 03:41:49;;;;;;;3.13;2.93;;;15.80;99.90;;;;;;4974499;28;20223;-75
2022/08/10 03:44:19;;;;;;;3.60;3.30;;;15.90;99.90;;;;;;4975795;28;20192;-75
2022/08/10 03:46:47;;;;;;;4.17;3.57;;;15.80;99.90;;;;;;4958819;28;20165;-74
2022/08/10 03:49:13;;;;;;;3.53;3.23;;;15.70;99.90;;;;;;4942725;28;20244;-74
2022/08/10 03:51:40;;;;;;;4.27;3.63;;;15.70;99.90;;;;;;4942666;28;20184;-74
2022/08/10 03:54:06;;;;;;;4.27;3.83;;;15.60;99.90;;;;;;4975497;28;20224;-75
2022/08/10 03:56:36;;;;;;;5.33;3.87;;;15.40;99.90;;;;;;4958140;28;20215;-75
2022/08/10 03:59:03;;;;;;;4.03;3.70;;;15.30;99.90;;;;;;4974239;28;20165;-75
2022/08/10 04:01:29;;;;;;;4.10;3.40;;;15.30;99.90;;;;;;4975890;28;20312;-74
2022/08/10 04:03:55;;;;;;;4.50;3.43;;;15.20;99.90;;;;;;4926289;28;20201;-74
2022/08/10 04:06:21;;;;;;;3.87;3.57;;;15.30;99.90;;;;;;4974181;28;20212;-74
2022/08/10 04:08:46;;;;;;;4.07;3.67;;;15.30;99.90;;;;;;4974030;28;20177;-75
2022/08/10 04:11:12;;;;;;;3.90;3.57;;;15.20;99.90;;;;;;4958092;28;20239;-75
2022/08/10 04:13:38;;;;;;;4.90;3.67;;;15.30;99.90;;;;;;4958201;28;20255;-74
2022/08/10 04:16:05;;;;;;;3.83;3.53;;;15.30;99.90;;;;;;4957825;28;20192;-75
2022/08/10 04:18:31;;;;;;;4.17;3.67;;;15.30;99.90;;;;;;4957657;28;20191;-75
2022/08/10 04:21:07;;;;;;;3.63;3.33;;;15.40;99.90;;;;;;4941887;28;20276;-75
2022/08/10 04:23:35;;;;;;;6.60;3.67;;;15.50;99.90;;;;;;4957385;28;20269;-74
2022/08/10 04:26:01;;;;;;;3.77;3.47;;;15.40;99.90;;;;;;4941969;28;20299;-75
2022/08/10 04:28:26;;;;;;;3.33;3.03;;;15.30;99.90;;;;;;4941733;28;20271;-75
2022/08/10 04:30:54;;;;;;;3.70;3.40;;;15.30;99.90;;;;;;4973884;28;20213;-75
2022/08/10 04:33:22;;;;;;;3.57;3.27;;;15.30;99.90;;;;;;4957474;28;20196;-74
2022/08/10 04:35:48;;;;;;;3.80;3.50;;;15.20;99.90;;;;;;4941360;28;20221;-75
2022/08/10 04:38:16;;;;;;;3.90;3.60;;;15.10;99.90;;;;;;4957309;28;20183;-74
2022/08/10 04:40:43;;;;;;;4.27;3.30;;;15.10;99.90;;;;;;4941584;28;20192;-75
2022/08/10 04:43:09;;;;;;;4.13;3.73;;;15.00;99.90;;;;;;4974540;28;20202;-75
2022/08/10 04:45:35;;;;;;;4.13;3.80;;;15.10;99.90;;;;;;4973361;28;20734;-74
2022/08/10 04:48:00;;;;;;;4.60;3.80;;;15.10;99.90;;;;;;4973278;28;20180;-74
2022/08/10 04:50:26;;;;;;;4.63;3.67;;;15.10;99.90;;;;;;4941430;28;20184;-74
2022/08/10 04:52:52;;;;;;;6.17;3.80;;;15.10;99.90;;;;;;4941076;28;20184;-75
2022/08/10 04:55:19;;;;;;;4.37;3.63;;;15.00;99.90;;;;;;4973606;28;20271;-75
2022/08/10 04:57:45;;;;;;;4.20;3.80;;;15.00;99.90;;;;;;4973223;28;20279;-74
2022/08/10 05:00:11;;;;;;;4.10;3.70;;;15.10;99.90;;;;;;4973066;28;20282;-74
2022/08/10 05:02:36;;;;;;;4.03;3.63;;;15.10;99.90;;;;;;4941229;28;20664;-74
2022/08/10 05:05:03;;;;;;;3.63;3.33;;;15.10;99.90;;;;;;4940895;28;20212;-75
2022/08/10 05:07:28;;;;;;;3.80;3.50;;;15.20;99.90;;;;;;4973958;28;20224;-75
2022/08/10 05:09:54;;;;;;;4.00;3.70;;;15.10;99.90;;;;;;4956791;28;20184;-75
2022/08/10 05:12:20;;;;;;;4.10;3.70;;;15.10;99.90;;;;;;4957080;28;20181;-75
2022/08/10 05:14:45;;;;;;;5.00;3.97;;;15.30;99.90;;;;;;4956890;28;20230;-75
2022/08/10 05:17:11;;;;;;;4.23;3.83;;;15.40;99.90;;;;;;4924829;28;20185;-75
2022/08/10 05:19:37;;;;;;;4.40;3.90;;;15.40;99.90;;;;;;4925018;28;20187;-75
2022/08/10 05:22:03;;;;;;;5.77;3.90;;;15.50;99.90;;;;;;4940442;28;20184;-75
2022/08/10 05:24:29;;;;;;;5.13;3.93;;;15.70;99.90;;;;;;4972381;28;20682;-75
2022/08/10 05:26:55;;;;;;;4.10;3.70;;;15.70;99.90;;;;;;4925036;28;20654;-75
2022/08/10 05:29:21;;;;;;;4.03;3.63;;;15.80;99.90;;;;;;4956687;28;20177;-74
2022/08/10 05:31:47;;;;;;;4.43;4.03;;;15.80;99.90;;;;;;4973791;28;20667;-75
2022/08/10 05:34:13;;;;;;;4.10;3.70;;;15.80;99.90;;;;;;4940403;28;20264;-75
2022/08/10 05:36:41;;;;;;;5.07;3.70;;;15.80;99.90;;;;;;4972423;28;20601;-75
2022/08/10 05:39:07;;;;;;;5.27;3.83;;;15.90;99.90;;;;;;4924704;28;20222;-75
2022/08/10 05:41:33;;;;;;;4.40;3.57;;;15.90;99.90;;;;;;4956362;28;20215;-76
2022/08/10 05:43:59;;;;;;;3.67;3.37;;;15.90;99.90;;;;;;4956216;28;20208;-74
2022/08/10 05:46:25;;;;;;;4.33;3.93;;;15.90;99.90;;;;;;4923715;28;20223;-76
2022/08/10 05:48:51;;;;;;;4.30;3.80;;;16.00;99.90;;;;;;4956309;28;20265;-75
2022/08/10 05:51:17;;;;;;;4.37;3.97;;;16.00;99.90;;;;;;4973436;28;20187;-75
2022/08/10 05:53:43;;;;;;;4.37;3.97;;;16.10;99.90;;;;;;4940232;28;20216;-74
2022/08/10 05:56:11;;;;;;;4.20;3.80;;;16.10;99.90;;;;;;4924431;28;20180;-75
2022/08/10 05:58:37;;;;;;;7.23;4.30;;;16.20;99.90;;;;;;4924501;28;20188;-75
2022/08/10 06:01:11;;;;;;;5.73;3.93;;;16.40;99.90;;;;;;4940272;28;20184;-76
2022/08/10 06:03:46;;;;;;;5.27;4.10;;;16.50;99.90;;;;;;4972106;28;20214;-75
2022/08/10 06:06:14;;;;;;;5.60;4.30;;;16.60;99.90;;;;;;4940928;28;20307;-76
2022/08/10 06:08:42;;;;;;;4.57;4.00;;;16.60;99.90;;;;;;4924575;28;20183;-75
2022/08/10 06:11:10;;;;;;;5.43;3.90;;;16.70;99.90;;;;;;4924823;28;20184;-76
2022/08/10 06:16:22;;;;;;;5.50;4.13;;;16.90;99.90;;;;;;4973244;28;20187;-75
2022/08/10 06:18:49;;;;;;;4.30;3.90;;;17.00;99.90;;;;;;4940055;28;20180;-76
2022/08/10 06:21:17;;;;;;;4.70;3.50;;;17.10;99.90;;;;;;4955812;28;20192;-75
2022/08/10 06:23:43;;;;;;;5.70;3.60;;;17.20;99.90;;;;;;4956025;28;20302;-76
2022/08/10 06:26:09;;;;;;;5.80;3.83;;;17.30;99.90;;;;;;4924052;28;20208;-76
2022/08/10 06:28:39;;;;;;;4.33;3.60;;;17.40;99.90;;;;;;4924281;28;20242;-76
2022/08/10 06:31:06;;;;;;;3.67;3.37;;;17.50;99.90;;;;;;4973171;28;20180;-77
2022/08/10 06:33:35;;;;;;;4.53;3.50;;;17.60;99.90;;;;;;4940052;28;20541;-76
2022/08/10 06:36:03;;;;;;;5.63;3.40;;;17.70;99.90;;;;;;4971736;28;20663;-76
2022/08/10 06:38:32;;;;;;;5.17;3.40;;;17.80;99.90;;;;;;4971678;28;20666;-76
2022/08/10 06:41:03;;;;;;;3.50;3.20;;;17.90;99.90;;;;;;4924262;28;20635;-77
2022/08/10 06:43:31;;;;;;;6.07;3.60;;;18.00;99.90;;;;;;4955596;28;20200;-76
2022/08/10 06:46:04;;;;;;;5.77;3.70;;;18.10;99.90;;;;;;4971607;28;20218;-76
2022/08/10 06:48:48;;;;;;;3.93;3.53;;;18.20;99.90;;;;;;4940300;28;20527;-76
2022/08/10 06:51:20;;;;;;;3.97;3.37;;;18.30;99.90;;;;;;4955692;28;20179;-76
2022/08/10 06:53:49;;;;;;;4.03;3.47;;;18.40;99.90;;;;;;4940227;28;20205;-76
2022/08/10 06:56:19;;;;;;;3.87;3.40;;;18.50;99.90;;;;;;4973020;28;20184;-77
2022/08/10 06:59:06;;;;;;;4.20;3.20;;;18.70;99.90;;;;;;4927518;28;20266;-76
2022/08/10 07:01:34;;;;;;;3.70;3.40;;;18.80;99.90;;;;;;4976546;28;20636;-77
2022/08/10 07:04:14;;;;;;;3.83;3.23;;;18.90;99.90;;;;;;4959098;28;20690;-76
2022/08/10 07:06:43;;;;;;;4.43;3.27;;;19.00;99.90;;;;;;4975213;28;20239;-76
2022/08/10 07:09:13;;;;;;;4.43;3.27;;;19.10;99.90;;;;;;4927475;28;20219;-77
2022/08/10 07:11:40;;;;;;;4.37;3.17;;;19.30;99.90;;;;;;4959443;28;20187;-76
2022/08/10 07:14:07;;;;;;;3.40;3.10;;;19.40;99.90;;;;;;4958828;28;20230;-76
2022/08/10 07:16:35;;;;;;;3.47;3.17;;;19.50;99.90;;;;;;4927144;28;20562;-76
2022/08/10 07:19:02;;;;;;;3.50;3.20;;;19.60;99.90;;;;;;4958919;28;20189;-76
2022/08/10 07:21:31;;;;;;;4.50;3.70;;;19.80;99.90;;;;;;4942888;28;20195;-77
2022/08/10 07:23:58;;;;;;;5.77;3.60;;;19.90;99.90;;;;;;4958753;28;20226;-76
2022/08/10 07:26:25;;;;;;;3.27;2.93;;;20.10;99.90;;;;;;4942759;28;20204;-76
2022/08/10 07:28:52;;;;;;;3.60;3.30;;;20.30;99.90;;;;;;4974930;28;20191;-76
2022/08/10 07:31:22;;;;;;;4.40;2.87;;;20.50;99.90;;;;;;4958545;28;20179;-77
2022/08/10 07:33:54;;;;;;;4.70;3.20;;;20.60;99.90;;;;;;4943215;28;20200;-77
2022/08/10 07:36:21;;;;;;;5.47;3.30;;;20.70;99.90;;;;;;4974634;28;20266;-76
2022/08/10 07:38:50;;;;;;;4.40;3.28;;;20.80;99.90;;;;;;4942732;28;20192;-77
2022/08/10 07:41:18;;;;;;;3.47;2.80;;;21.00;99.90;;;;;;4958576;28;20180;-76
2022/08/10 07:43:47;;;;;;;4.68;3.20;;;21.20;99.90;;;;;;4958274;28;20196;-77
2022/08/10 07:46:14;;;;;;;3.53;2.50;;;21.50;99.90;;;;;;4926592;28;20212;-77
2022/08/10 07:48:46;;;;;;;3.50;3.17;;;21.70;99.90;;;;;;4926815;28;20184;-77
2022/08/10 07:51:13;;;;;;;3.42;2.85;;;21.70;99.90;;;;;;4974609;28;20184;-76
2022/08/10 07:53:45;;;;;;;4.50;3.05;;;21.90;99.90;;;;;;4958259;28;20200;-77
2022/08/10 07:56:11;;;;;;;3.85;2.50;;;22.20;99.90;;;;;;4942106;28;20176;-77
2022/08/10 07:58:56;;;;;;;3.10;2.80;;;22.30;99.90;;;;;;4958351;28;20188;-76
2022/08/10 08:01:27;;;;;;;3.42;2.67;;;22.60;99.90;;;;;;4975549;28;20184;-77
2022/08/10 08:03:55;;;;;;;5.07;2.70;;;22.80;99.90;;;;;;4942033;28;20207;-76
2022/08/10 08:06:21;;;;;;;3.70;2.50;;;22.90;99.90;;;;;;4926364;28;20196;-76
2022/08/10 08:08:48;;;;;;;4.53;2.63;;;23.10;99.90;;;;;;4974642;28;20187;-77
2022/08/10 08:11:15;;;;;;;2.80;2.50;;;23.20;98.90;;;;;;4958051;28;20177;-76
2022/08/10 08:13:42;;;;;;;2.90;2.30;;;23.40;99.50;;;;;;4942114;28;20231;-76
2022/08/10 08:16:10;;;;;;;3.25;2.60;;;23.50;99.10;;;;;;4957966;28;20328;-76
2022/08/10 08:18:37;;;;;;;2.60;2.40;;;23.70;97.60;;;;;;4958169;28;20666;-76
2022/08/10 08:21:03;;;;;;;2.50;2.30;;;23.90;95.50;;;;;;4975186;28;20175;-76
2022/08/10 08:23:30;;;;;;;2.42;2.20;;;24.10;92.80;;;;;;4941311;28;20283;-76
2022/08/10 08:25:57;;;;;;;3.70;2.13;;;24.20;87.00;;;;;;4926030;28;20204;-76
2022/08/10 08:28:23;;;;;;;3.17;2.05;;;24.40;85.90;;;;;;4957681;28;20247;-76
2022/08/10 08:30:51;;;;;;;2.92;2.20;;;24.50;81.60;;;;;;4957576;28;20168;-76
2022/08/10 08:33:17;;;;;;;2.90;2.10;;;24.60;80.80;;;;;;4957437;28;20223;-76
2022/08/10 08:35:44;;;;;;;2.80;2.28;;;24.80;80.60;;;;;;4926130;28;20515;-76
2022/08/10 08:38:11;;;;;;;2.65;1.75;;;25.00;80.00;;;;;;4973552;28;20275;-76
2022/08/10 08:40:39;;;;;;;4.22;2.17;;;25.20;74.20;;;;;;4941837;28;20195;-76
2022/08/10 08:43:23;;;;;;;4.32;2.38;;;25.40;75.30;;;;;;4957461;28;20624;-76
2022/08/10 08:46:27;;;;;;;2.70;2.22;;;25.40;71.20;;;;;;4974752;28;20567;-76
2022/08/10 08:49:14;;;;;;;3.58;2.28;;;25.50;73.20;;;;;;4974641;28;20177;-76
2022/08/10 08:51:57;;;;;;;4.38;2.35;;;25.70;71.10;;;;;;4973336;28;20173;-76
2022/08/10 08:54:32;;;;;;;2.83;2.30;;;26.00;69.90;;;;;;4973260;28;20197;-76
2022/08/10 08:57:14;;;;;;;2.90;2.15;;;26.00;65.80;;;;;;4973026;28;20230;-76
2022/08/10 09:00:00;;;;;;;2.92;2.03;;;26.00;68.60;;;;;;4957195;28;20180;-76
2022/08/10 09:02:46;;;;;;;2.90;1.92;;;26.10;66.60;;;;;;4956843;28;20176;-77
2022/08/10 09:05:39;;;;;;;3.38;2.00;;;26.20;66.10;;;;;;4956769;28;20208;-76
2022/08/10 09:08:30;;;;;;;3.05;2.40;;;26.40;65.10;;;;;;4972783;28;20225;-76
2022/08/10 09:11:44;;;;;;;4.05;2.30;;;26.40;63.50;;;;;;4956875;28;20172;-76
2022/08/10 09:14:37;;;;;;;2.53;2.30;;;26.50;62.40;;;;;;4972753;28;20199;-76
2022/08/10 09:17:14;;;;;;;2.88;2.45;;;26.60;61.60;;;;;;4972654;28;20219;-76
2022/08/10 09:19:56;;;;;;;2.67;2.40;;;26.60;60.20;;;;;;4956690;28;20176;-76
2022/08/10 09:22:50;;;;;;;2.85;2.40;;;26.80;60.40;;;;;;4973512;28;20216;-76
2022/08/10 09:25:19;;;;;;;3.65;2.38;;;27.00;59.20;;;;;;4972564;28;20219;-77
2022/08/10 09:28:04;;;;;;;3.30;2.72;;;27.10;58.20;;;;;;4956803;28;20263;-76
2022/08/10 09:30:45;;;;;;;5.18;2.50;;;27.20;56.20;;;;;;4956632;28;20182;-76
2022/08/10 09:33:14;;;;;;;2.63;2.42;;;27.10;57.40;;;;;;4956680;28;20296;-76
2022/08/10 09:36:03;;;;;;;2.63;2.22;;;27.00;58.30;;;;;;4956552;28;20259;-76
2022/08/10 09:38:51;;;;;;;2.85;2.30;;;27.30;55.00;;;;;;4972420;28;20176;-76
2022/08/10 09:41:50;;;;;;;3.13;2.45;;;27.50;55.20;;;;;;4956239;28;20235;-76
2022/08/10 09:44:57;;;;;;;3.38;2.50;;;27.70;53.90;;;;;;4973506;28;20184;-76
2022/08/10 09:47:37;;;;;;;2.65;2.35;;;27.90;55.40;;;;;;4955895;28;20184;-76
2022/08/10 09:50:16;;;;;;;3.03;2.28;;;28.00;53.50;;;;;;4972359;28;20183;-76
2022/08/10 09:52:52;;;;;;;3.15;2.45;;;28.10;52.60;;;;;;4972265;28;20176;-77
2022/08/10 09:55:40;;;;;;;2.97;2.60;;;28.20;52.90;;;;;;4973251;28;20561;-76
2022/08/10 09:58:17;;;;;;;2.60;2.35;;;28.10;52.30;;;;;;4972093;28;20187;-76
2022/08/10 10:01:25;;;;;;;3.30;2.38;;;28.20;50.70;;;;;;4972021;28;20172;-76
2022/08/10 10:04:16;;;;;;;2.75;2.20;;;28.20;50.50;;;;;;4875878;29;20231;-76
2022/08/10 10:06:54;;;;;;;3.63;2.60;;;28.30;48.30;;;;;;4875917;29;20302;-77
2022/08/10 10:09:29;;;;;;;2.60;2.40;;;28.30;50.20;;;;;;4947685;28;20180;-76
2022/08/10 10:12:22;;;;;;;3.47;2.22;;;28.60;47.30;;;;;;4971936;28;20267;-77
2022/08/10 10:18:01;;;;;;;3.78;2.10;;;28.80;45.00;;;;;;4973061;28;20263;-76
2022/08/10 10:21:14;;;;;;;2.72;2.03;;;28.70;47.30;;;;;;4973089;28;20176;-77
2022/08/10 10:24:05;;;;;;;2.50;1.95;;;28.20;43.40;;;;;;4948764;28;20215;-76
2022/08/10 10:26:39;;;;;;;2.45;2.20;;;27.80;46.40;;;;;;4955615;28;20200;-77
2022/08/10 10:29:29;;;;;;;2.15;2.00;;;28.00;44.10;;;;;;4971854;28;20662;-76
2022/08/10 10:32:14;;;;;;;3.42;2.08;;;28.40;44.20;;;;;;4956426;28;20176;-77
2022/08/10 10:35:03;;;;;;;3.50;2.10;;;28.90;44.10;;;;;;4975691;28;20196;-76
2022/08/10 10:37:30;;;;;;;2.20;2.00;;;29.00;41.20;;;;;;4975812;28;20204;-77
2022/08/10 10:40:01;;;;;;;2.85;2.10;;;29.20;41.70;;;;;;4977087;28;20164;-77
2022/08/10 10:42:55;;;;;;;4.85;2.20;;;29.30;41.20;;;;;;4975786;28;20195;-77
2022/08/10 10:45:30;;;;;;;4.32;2.05;;;29.00;41.80;;;;;;4975879;28;20294;-77
2022/08/10 10:48:24;;;;;;;3.35;1.83;;;28.50;43.80;;;;;;4975481;28;20176;-76
2022/08/10 10:51:23;;;;;;;2.67;2.40;;;28.30;44.40;;;;;;4959514;28;20532;-76
2022/08/10 10:54:06;;;;;;;3.65;2.25;;;28.40;43.50;;;;;;4975402;28;20246;-77
2022/08/10 10:56:47;;;;;;;2.90;2.30;;;28.30;42.00;;;;;;4959160;28;20556;-77
2022/08/10 10:59:22;;;;;;;2.33;2.13;;;28.70;44.30;;;;;;4976755;28;20208;-77
2022/08/10 11:02:17;;;;;;;2.38;2.15;;;29.10;41.90;;;;;;4975268;28;20203;-77
2022/08/10 11:04:52;;;;;;;3.60;2.17;;;29.70;41.50;;;;;;4959228;28;20196;-77
2022/08/10 11:07:27;;;;;;;2.85;2.20;;;29.90;40.50;;;;;;4975217;28;20171;-76
2022/08/10 11:10:18;;;;;;;3.92;2.35;;;29.60;39.60;;;;;;4943615;28;20646;-76
2022/08/10 11:13:02;;;;;;;2.88;2.40;;;30.10;41.10;;;;;;4959296;28;20203;-76
2022/08/10 11:15:35;;;;;;;2.90;2.40;;;30.40;39.80;;;;;;4975283;28;20204;-76
2022/08/10 11:18:38;;;;;;;2.95;2.20;;;30.50;39.00;;;;;;4976205;28;20173;-77
2022/08/10 11:21:37;;;;;;;4.13;2.38;;;30.40;38.40;;;;;;4975046;28;20175;-76
2022/08/10 11:24:20;;;;;;;3.05;2.40;;;30.30;41.10;;;;;;4976183;28;20208;-76
2022/08/10 11:26:50;;;;;;;2.40;2.20;;;30.60;39.30;;;;;;4958625;28;20199;-77
2022/08/10 11:29:28;;;;;;;3.53;2.30;;;30.80;36.40;;;;;;4927518;28;20181;-77
2022/08/10 11:32:00;;;;;;;4.60;2.30;;;30.70;37.50;;;;;;4975078;28;20177;-76
2022/08/10 11:34:45;;;;;;;2.72;2.20;;;30.50;38.20;;;;;;4943179;28;20197;-77
2022/08/10 11:37:42;;;;;;;2.88;2.25;;;30.60;37.50;;;;;;4974502;28;20177;-76
2022/08/10 11:40:25;;;;;;;3.47;2.50;;;30.80;36.60;;;;;;4958781;28;20180;-77
2022/08/10 11:43:26;;;;;;;4.20;2.40;;;31.00;38.50;;;;;;4974530;28;20180;-77
2022/08/10 11:46:23;;;;;;;3.67;2.30;;;31.00;37.00;;;;;;4969638;28;20231;-77
2022/08/10 11:49:08;;;;;;;2.35;2.15;;;31.10;36.30;;;;;;4958480;28;20177;-77
2022/08/10 11:51:56;;;;;;;2.80;2.25;;;31.40;36.90;;;;;;4958494;28;20188;-77
2022/08/10 11:54:34;;;;;;;3.75;2.33;;;32.00;37.00;;;;;;4974582;28;20694;-77
2022/08/10 11:57:00;;;;;;;4.13;2.13;;;32.20;34.10;;;;;;4974311;28;20211;-77
2022/08/10 12:02:18;;;;;;;2.63;2.25;;;32.40;34.30;;;;;;4975708;28;20610;-76
2022/08/10 12:04:56;;;;;;;2.70;2.50;;;32.50;33.20;;;;;;4974158;28;20207;-77
2022/08/10 12:07:25;;;;;;;4.20;2.20;;;32.50;33.70;;;;;;4975239;28;20180;-77
2022/08/10 12:09:53;;;;;;;3.75;2.35;;;32.00;35.40;;;;;;4958482;28;20171;-77
2022/08/10 12:12:20;;;;;;;2.40;2.10;;;32.20;35.60;;;;;;4942306;28;20185;-77
2022/08/10 12:15:09;;;;;;;4.28;2.30;;;32.20;36.00;;;;;;4957831;28;20201;-77
2022/08/10 12:18:23;;;;;;;4.57;2.10;;;32.40;36.00;;;;;;4973947;28;20263;-77
2022/08/10 12:20:56;;;;;;;2.97;2.30;;;32.70;34.70;;;;;;4965746;28;20274;-77
2022/08/10 12:23:34;;;;;;;3.65;2.40;;;32.90;34.90;;;;;;5015765;23;20209;-74
2022/08/10 12:26:13;;;;;;;2.38;2.17;;;32.80;30.70;;;;;;4941556;28;20227;-74
2022/08/10 12:29:06;;;;;;;4.43;2.50;;;32.50;33.00;;;;;;4941946;28;20184;-74
2022/08/10 12:31:54;;;;;;;4.43;2.30;;;31.40;33.10;;;;;;4974893;28;20178;-74
2022/08/10 12:34:37;;;;;;;4.03;2.35;;;30.40;33.10;;;;;;4974914;28;20184;-74
2022/08/10 12:37:18;;;;;;;3.05;2.50;;;30.30;35.00;;;;;;4957462;28;20559;-74
2022/08/10 12:40:03;;;;;;;3.00;2.70;;;30.10;34.80;;;;;;4957523;28;20251;-74
2022/08/10 12:42:36;;;;;;;3.95;2.60;;;30.20;36.10;;;;;;4957551;28;20176;-74
2022/08/10 12:45:16;;;;;;;2.67;2.47;;;30.80;37.40;;;;;;4973709;28;20263;-74
2022/08/10 12:47:52;;;;;;;2.47;2.25;;;31.40;34.30;;;;;;4942802;28;20635;-74
2022/08/10 12:50:37;;;;;;;4.88;2.38;;;31.40;34.40;;;;;;4973613;28;20662;-74
2022/08/10 12:53:37;;;;;;;3.88;2.42;;;30.60;34.60;;;;;;4957570;28;20180;-74
2022/08/10 12:56:04;;;;;;;4.20;2.42;;;30.00;35.40;;;;;;4956998;28;20593;-74
2022/08/10 12:58:31;;;;;;;2.50;2.10;;;29.90;35.70;;;;;;4941148;28;20242;-74
2022/08/10 13:00:59;;;;;;;2.40;2.20;;;30.00;37.00;;;;;;4957305;28;20203;-74
2022/08/10 13:03:27;;;;;;;2.67;2.25;;;30.50;37.30;;;;;;4973319;28;20189;-74
2022/08/10 13:05:54;;;;;;;4.32;2.60;;;31.00;35.10;;;;;;4973086;28;20215;-74
2022/08/10 13:11:08;;;;;;;3.80;2.42;;;31.70;34.80;;;;;;4974497;28;20723;-74
2022/08/10 13:13:37;;;;;;;2.95;2.58;;;31.60;34.90;;;;;;4941440;28;20196;-74
2022/08/10 13:16:04;;;;;;;2.30;2.10;;;31.40;33.50;;;;;;4940978;28;20180;-74
2022/08/10 13:18:37;;;;;;;2.83;2.42;;;31.70;32.90;;;;;;4957060;28;20244;-74
2022/08/10 13:21:10;;;;;;;3.28;2.20;;;32.00;33.40;;;;;;4941041;28;20230;-74
2022/08/10 13:23:41;;;;;;;4.10;2.30;;;32.40;33.30;;;;;;4972436;28;20294;-74
2022/08/10 13:26:13;;;;;;;2.30;2.10;;;32.50;31.50;;;;;;4972731;28;20308;-74
2022/08/10 13:28:54;;;;;;;2.55;2.20;;;32.70;32.30;;;;;;4973028;28;20180;-74
2022/08/10 13:31:25;;;;;;;3.25;2.30;;;33.30;31.90;;;;;;4972750;28;20227;-74
2022/08/10 13:33:54;;;;;;;4.88;2.40;;;33.50;31.30;;;;;;4972599;28;20189;-74